sensor_id;sensor_type;location;lat;lon;timestamp;P1;durP1;ratioP1;P2;durP2;ratioP2
8913;SDS011;4492;48.736;9.092;2022-07-29T00:00:10;8.53;;;6.27;;
8913;SDS011;4492;48.736;9.092;2022-07-29T00:02:36;6.17;;;5.73;;
8913;SDS011;4492;48.736;9.092;2022-07-29T00:05:02;5.90;;;5.10;;
8913;SDS011;4492;48.736;9.092;2022-07-29T00:07:29;6.07;;;5.57;;
8913;SDS011;4492;48.736;9.092;2022-07-29T00:09:54;5.90;;;5.50;;
8913;SDS011;4492;48.736;9.092;2022-07-29T00:12:20;6.77;;;5.80;;
8913;SDS011;4492;48.736;9.092;2022-07-29T00:14:47;5.70;;;5.30;;
8913;SDS011;4492;48.736;9.092;2022-07-29T00:17:14;8.27;;;5.60;;
8913;SDS011;4492;48.736;9.092;2022-07-29T00:19:39;5.70;;;5.10;;
8913;SDS011;4492;48.736;9.092;2022-07-29T00:22:05;4.67;;;4.37;;
8913;SDS011;4492;48.736;9.092;2022-07-29T00:24:31;5.80;;;5.20;;
8913;SDS011;4492;48.736;9.092;2022-07-29T00:26:56;6.20;;;5.60;;
8913;SDS011;4492;48.736;9.092;2022-07-29T00:29:22;6.53;;;5.73;;
8913;SDS011;4492;48.736;9.092;2022-07-29T00:31:47;7.37;;;5.97;;
8913;SDS011;4492;48.736;9.092;2022-07-29T00:34:13;5.93;;;5.43;;
8913;SDS011;4492;48.736;9.092;2022-07-29T00:36:57;5.50;;;5.10;;
8913;SDS011;4492;48.736;9.092;2022-07-29T00:39:22;5.07;;;4.67;;
8913;SDS011;4492;48.736;9.092;2022-07-29T00:41:48;5.17;;;4.77;;
8913;SDS011;4492;48.736;9.092;2022-07-29T00:44:14;5.30;;;4.90;;
8913;SDS011;4492;48.736;9.092;2022-07-29T00:46:40;7.60;;;4.50;;
8913;SDS011;4492;48.736;9.092;2022-07-29T00:49:05;4.73;;;4.30;;
8913;SDS011;4492;48.736;9.092;2022-07-29T00:51:32;5.17;;;4.73;;
8913;SDS011;4492;48.736;9.092;2022-07-29T00:54:00;4.73;;;4.33;;
8913;SDS011;4492;48.736;9.092;2022-07-29T00:56:26;5.00;;;4.60;;
8913;SDS011;4492;48.736;9.092;2022-07-29T00:58:54;4.90;;;4.60;;
8913;SDS011;4492;48.736;9.092;2022-07-29T01:01:21;4.80;;;4.40;;
8913;SDS011;4492;48.736;9.092;2022-07-29T01:03:47;4.70;;;4.30;;
8913;SDS011;4492;48.736;9.092;2022-07-29T01:06:12;4.63;;;4.23;;
8913;SDS011;4492;48.736;9.092;2022-07-29T01:08:39;4.77;;;4.37;;
8913;SDS011;4492;48.736;9.092;2022-07-29T01:11:05;4.73;;;4.33;;
8913;SDS011;4492;48.736;9.092;2022-07-29T01:13:31;4.60;;;4.30;;
8913;SDS011;4492;48.736;9.092;2022-07-29T01:15:59;4.70;;;4.30;;
8913;SDS011;4492;48.736;9.092;2022-07-29T01:18:32;4.90;;;4.50;;
8913;SDS011;4492;48.736;9.092;2022-07-29T01:21:08;4.00;;;3.63;;
8913;SDS011;4492;48.736;9.092;2022-07-29T01:26:46;5.73;;;4.63;;
8913;SDS011;4492;48.736;9.092;2022-07-29T01:29:29;4.00;;;3.70;;
8913;SDS011;4492;48.736;9.092;2022-07-29T01:32:29;4.43;;;3.87;;
8913;SDS011;4492;48.736;9.092;2022-07-29T01:35:02;4.60;;;4.20;;
8913;SDS011;4492;48.736;9.092;2022-07-29T01:40:33;4.20;;;3.90;;
8913;SDS011;4492;48.736;9.092;2022-07-29T01:43:06;4.97;;;4.10;;
8913;SDS011;4492;48.736;9.092;2022-07-29T01:48:45;4.17;;;3.80;;
8913;SDS011;4492;48.736;9.092;2022-07-29T01:51:20;4.03;;;3.73;;
8913;SDS011;4492;48.736;9.092;2022-07-29T01:53:57;6.47;;;4.00;;
8913;SDS011;4492;48.736;9.092;2022-07-29T01:56:37;4.53;;;4.07;;
8913;SDS011;4492;48.736;9.092;2022-07-29T01:59:04;4.20;;;3.80;;
8913;SDS011;4492;48.736;9.092;2022-07-29T02:01:32;3.93;;;3.73;;
8913;SDS011;4492;48.736;9.092;2022-07-29T02:04:00;3.90;;;3.70;;
8913;SDS011;4492;48.736;9.092;2022-07-29T02:06:28;4.50;;;4.10;;
8913;SDS011;4492;48.736;9.092;2022-07-29T02:08:56;3.60;;;3.37;;
8913;SDS011;4492;48.736;9.092;2022-07-29T02:11:24;3.90;;;3.60;;
8913;SDS011;4492;48.736;9.092;2022-07-29T02:13:49;4.07;;;3.80;;
8913;SDS011;4492;48.736;9.092;2022-07-29T02:16:20;6.00;;;4.20;;
8913;SDS011;4492;48.736;9.092;2022-07-29T02:18:46;4.43;;;4.07;;
8913;SDS011;4492;48.736;9.092;2022-07-29T02:21:14;4.10;;;3.80;;
8913;SDS011;4492;48.736;9.092;2022-07-29T02:23:46;3.97;;;3.67;;
8913;SDS011;4492;48.736;9.092;2022-07-29T02:26:12;3.90;;;3.67;;
8913;SDS011;4492;48.736;9.092;2022-07-29T02:28:39;4.00;;;3.70;;
8913;SDS011;4492;48.736;9.092;2022-07-29T02:31:05;3.47;;;3.27;;
8913;SDS011;4492;48.736;9.092;2022-07-29T02:33:32;5.33;;;3.50;;
8913;SDS011;4492;48.736;9.092;2022-07-29T02:35:58;4.30;;;3.97;;
8913;SDS011;4492;48.736;9.092;2022-07-29T02:38:27;5.03;;;3.97;;
8913;SDS011;4492;48.736;9.092;2022-07-29T02:41:13;4.97;;;4.17;;
8913;SDS011;4492;48.736;9.092;2022-07-29T02:43:43;4.30;;;4.00;;
8913;SDS011;4492;48.736;9.092;2022-07-29T02:46:13;4.10;;;3.80;;
8913;SDS011;4492;48.736;9.092;2022-07-29T02:48:43;5.27;;;4.17;;
8913;SDS011;4492;48.736;9.092;2022-07-29T02:51:23;7.37;;;4.27;;
8913;SDS011;4492;48.736;9.092;2022-07-29T02:54:07;4.57;;;4.17;;
8913;SDS011;4492;48.736;9.092;2022-07-29T02:56:35;5.20;;;4.20;;
8913;SDS011;4492;48.736;9.092;2022-07-29T02:59:03;4.90;;;4.50;;
8913;SDS011;4492;48.736;9.092;2022-07-29T03:01:32;4.70;;;4.40;;
8913;SDS011;4492;48.736;9.092;2022-07-29T03:04:03;4.53;;;4.17;;
8913;SDS011;4492;48.736;9.092;2022-07-29T03:06:30;4.87;;;4.47;;
8913;SDS011;4492;48.736;9.092;2022-07-29T03:08:57;4.17;;;3.77;;
8913;SDS011;4492;48.736;9.092;2022-07-29T03:11:24;4.27;;;3.97;;
8913;SDS011;4492;48.736;9.092;2022-07-29T03:13:50;5.93;;;4.23;;
8913;SDS011;4492;48.736;9.092;2022-07-29T03:16:17;4.40;;;4.10;;
8913;SDS011;4492;48.736;9.092;2022-07-29T03:18:44;4.23;;;4.00;;
8913;SDS011;4492;48.736;9.092;2022-07-29T03:21:10;4.00;;;3.80;;
8913;SDS011;4492;48.736;9.092;2022-07-29T03:23:35;4.17;;;3.87;;
8913;SDS011;4492;48.736;9.092;2022-07-29T03:26:01;4.87;;;4.10;;
8913;SDS011;4492;48.736;9.092;2022-07-29T03:28:27;4.30;;;3.90;;
8913;SDS011;4492;48.736;9.092;2022-07-29T03:30:52;4.40;;;4.00;;
8913;SDS011;4492;48.736;9.092;2022-07-29T03:33:18;4.50;;;4.20;;
8913;SDS011;4492;48.736;9.092;2022-07-29T03:35:44;4.50;;;3.87;;
8913;SDS011;4492;48.736;9.092;2022-07-29T03:38:10;4.40;;;4.10;;
8913;SDS011;4492;48.736;9.092;2022-07-29T03:40:44;4.23;;;3.93;;
8913;SDS011;4492;48.736;9.092;2022-07-29T03:43:17;4.90;;;4.43;;
8913;SDS011;4492;48.736;9.092;2022-07-29T03:45:46;5.03;;;4.53;;
8913;SDS011;4492;48.736;9.092;2022-07-29T03:48:15;4.10;;;3.80;;
8913;SDS011;4492;48.736;9.092;2022-07-29T03:50:44;4.13;;;3.73;;
8913;SDS011;4492;48.736;9.092;2022-07-29T03:53:10;4.60;;;4.23;;
8913;SDS011;4492;48.736;9.092;2022-07-29T03:55:39;4.60;;;4.20;;
8913;SDS011;4492;48.736;9.092;2022-07-29T03:58:08;5.30;;;4.70;;
8913;SDS011;4492;48.736;9.092;2022-07-29T04:00:35;4.83;;;4.53;;
8913;SDS011;4492;48.736;9.092;2022-07-29T04:03:02;4.57;;;4.03;;
8913;SDS011;4492;48.736;9.092;2022-07-29T04:05:29;4.63;;;4.23;;
8913;SDS011;4492;48.736;9.092;2022-07-29T04:07:54;4.60;;;4.27;;
8913;SDS011;4492;48.736;9.092;2022-07-29T04:10:20;5.30;;;4.53;;
8913;SDS011;4492;48.736;9.092;2022-07-29T04:12:46;4.40;;;4.10;;
8913;SDS011;4492;48.736;9.092;2022-07-29T04:15:11;4.70;;;4.30;;
8913;SDS011;4492;48.736;9.092;2022-07-29T04:17:37;4.97;;;4.10;;
8913;SDS011;4492;48.736;9.092;2022-07-29T04:20:03;4.50;;;4.20;;
8913;SDS011;4492;48.736;9.092;2022-07-29T04:22:29;4.30;;;3.90;;
8913;SDS011;4492;48.736;9.092;2022-07-29T04:24:54;4.67;;;4.27;;
8913;SDS011;4492;48.736;9.092;2022-07-29T04:27:20;4.30;;;4.00;;
8913;SDS011;4492;48.736;9.092;2022-07-29T04:29:45;4.30;;;3.90;;
8913;SDS011;4492;48.736;9.092;2022-07-29T04:32:11;4.30;;;4.00;;
8913;SDS011;4492;48.736;9.092;2022-07-29T04:34:37;3.57;;;3.17;;
8913;SDS011;4492;48.736;9.092;2022-07-29T04:37:02;3.93;;;3.50;;
8913;SDS011;4492;48.736;9.092;2022-07-29T04:39:28;3.63;;;3.07;;
8913;SDS011;4492;48.736;9.092;2022-07-29T04:41:53;3.50;;;3.23;;
8913;SDS011;4492;48.736;9.092;2022-07-29T04:44:19;4.17;;;3.40;;
8913;SDS011;4492;48.736;9.092;2022-07-29T04:46:44;3.43;;;3.23;;
8913;SDS011;4492;48.736;9.092;2022-07-29T04:49:10;3.53;;;3.23;;
8913;SDS011;4492;48.736;9.092;2022-07-29T04:51:35;3.33;;;3.13;;
8913;SDS011;4492;48.736;9.092;2022-07-29T04:54:01;3.10;;;2.90;;
8913;SDS011;4492;48.736;9.092;2022-07-29T04:56:27;3.20;;;3.00;;
8913;SDS011;4492;48.736;9.092;2022-07-29T04:58:52;3.73;;;2.70;;
8913;SDS011;4492;48.736;9.092;2022-07-29T05:01:18;2.50;;;2.40;;
8913;SDS011;4492;48.736;9.092;2022-07-29T05:03:44;2.50;;;2.40;;
8913;SDS011;4492;48.736;9.092;2022-07-29T05:06:10;3.20;;;2.90;;
8913;SDS011;4492;48.736;9.092;2022-07-29T05:08:35;2.40;;;2.20;;
8913;SDS011;4492;48.736;9.092;2022-07-29T05:11:01;2.90;;;2.70;;
8913;SDS011;4492;48.736;9.092;2022-07-29T05:13:28;2.70;;;2.50;;
8913;SDS011;4492;48.736;9.092;2022-07-29T05:15:53;3.00;;;2.43;;
8913;SDS011;4492;48.736;9.092;2022-07-29T05:18:19;3.30;;;2.67;;
8913;SDS011;4492;48.736;9.092;2022-07-29T05:20:44;2.87;;;2.60;;
8913;SDS011;4492;48.736;9.092;2022-07-29T05:23:10;3.43;;;2.77;;
8913;SDS011;4492;48.736;9.092;2022-07-29T05:25:37;3.07;;;2.63;;
8913;SDS011;4492;48.736;9.092;2022-07-29T05:28:03;3.10;;;2.77;;
8913;SDS011;4492;48.736;9.092;2022-07-29T05:30:29;3.13;;;2.93;;
8913;SDS011;4492;48.736;9.092;2022-07-29T05:32:54;4.47;;;3.00;;
8913;SDS011;4492;48.736;9.092;2022-07-29T05:35:20;3.20;;;2.90;;
8913;SDS011;4492;48.736;9.092;2022-07-29T05:37:46;3.17;;;2.90;;
8913;SDS011;4492;48.736;9.092;2022-07-29T05:40:11;3.10;;;2.90;;
8913;SDS011;4492;48.736;9.092;2022-07-29T05:42:37;3.50;;;3.20;;
8913;SDS011;4492;48.736;9.092;2022-07-29T05:45:03;3.90;;;3.27;;
8913;SDS011;4492;48.736;9.092;2022-07-29T05:47:29;2.97;;;2.70;;
8913;SDS011;4492;48.736;9.092;2022-07-29T05:49:55;4.40;;;3.07;;
8913;SDS011;4492;48.736;9.092;2022-07-29T05:52:21;3.03;;;2.73;;
8913;SDS011;4492;48.736;9.092;2022-07-29T05:54:46;3.60;;;3.00;;
8913;SDS011;4492;48.736;9.092;2022-07-29T05:57:19;3.30;;;3.00;;
8913;SDS011;4492;48.736;9.092;2022-07-29T05:59:46;3.33;;;3.03;;
8913;SDS011;4492;48.736;9.092;2022-07-29T06:02:12;3.90;;;3.50;;
8913;SDS011;4492;48.736;9.092;2022-07-29T06:04:37;3.50;;;3.20;;
8913;SDS011;4492;48.736;9.092;2022-07-29T06:07:03;3.50;;;3.20;;
8913;SDS011;4492;48.736;9.092;2022-07-29T06:09:29;4.23;;;3.07;;
8913;SDS011;4492;48.736;9.092;2022-07-29T06:11:55;4.17;;;3.50;;
8913;SDS011;4492;48.736;9.092;2022-07-29T06:14:20;4.13;;;3.13;;
8913;SDS011;4492;48.736;9.092;2022-07-29T06:16:46;4.13;;;3.83;;
8913;SDS011;4492;48.736;9.092;2022-07-29T06:19:12;3.40;;;3.10;;
8913;SDS011;4492;48.736;9.092;2022-07-29T06:21:43;4.10;;;3.37;;
8913;SDS011;4492;48.736;9.092;2022-07-29T06:24:10;3.30;;;3.00;;
8913;SDS011;4492;48.736;9.092;2022-07-29T06:26:37;3.70;;;3.40;;
8913;SDS011;4492;48.736;9.092;2022-07-29T06:29:04;3.90;;;3.60;;
8913;SDS011;4492;48.736;9.092;2022-07-29T06:31:29;3.90;;;3.60;;
8913;SDS011;4492;48.736;9.092;2022-07-29T06:33:55;3.67;;;3.43;;
8913;SDS011;4492;48.736;9.092;2022-07-29T06:36:20;4.40;;;4.00;;
8913;SDS011;4492;48.736;9.092;2022-07-29T06:38:46;3.53;;;3.23;;
8913;SDS011;4492;48.736;9.092;2022-07-29T06:41:11;4.33;;;3.93;;
8913;SDS011;4492;48.736;9.092;2022-07-29T06:43:40;3.60;;;3.30;;
8913;SDS011;4492;48.736;9.092;2022-07-29T06:46:14;3.77;;;3.47;;
8913;SDS011;4492;48.736;9.092;2022-07-29T06:48:42;3.77;;;3.47;;
8913;SDS011;4492;48.736;9.092;2022-07-29T06:51:08;3.40;;;3.10;;
8913;SDS011;4492;48.736;9.092;2022-07-29T06:53:35;3.93;;;3.63;;
8913;SDS011;4492;48.736;9.092;2022-07-29T06:56:04;4.77;;;3.50;;
8913;SDS011;4492;48.736;9.092;2022-07-29T06:58:33;4.17;;;3.87;;
8913;SDS011;4492;48.736;9.092;2022-07-29T07:01:00;4.17;;;3.77;;
8913;SDS011;4492;48.736;9.092;2022-07-29T07:03:27;3.60;;;3.30;;
8913;SDS011;4492;48.736;9.092;2022-07-29T07:05:53;4.10;;;3.80;;
8913;SDS011;4492;48.736;9.092;2022-07-29T07:08:19;4.30;;;4.00;;
8913;SDS011;4492;48.736;9.092;2022-07-29T07:10:46;6.37;;;3.83;;
8913;SDS011;4492;48.736;9.092;2022-07-29T07:13:12;3.70;;;3.50;;
8913;SDS011;4492;48.736;9.092;2022-07-29T07:15:39;3.60;;;3.30;;
8913;SDS011;4492;48.736;9.092;2022-07-29T07:18:05;4.10;;;3.80;;
8913;SDS011;4492;48.736;9.092;2022-07-29T07:20:32;5.90;;;3.83;;
8913;SDS011;4492;48.736;9.092;2022-07-29T07:22:58;3.90;;;3.50;;
8913;SDS011;4492;48.736;9.092;2022-07-29T07:25:23;5.30;;;3.93;;
8913;SDS011;4492;48.736;9.092;2022-07-29T07:27:49;3.60;;;3.40;;
8913;SDS011;4492;48.736;9.092;2022-07-29T07:30:14;5.37;;;3.90;;
8913;SDS011;4492;48.736;9.092;2022-07-29T07:32:40;3.90;;;3.60;;
8913;SDS011;4492;48.736;9.092;2022-07-29T07:35:06;4.53;;;4.03;;
8913;SDS011;4492;48.736;9.092;2022-07-29T07:37:33;3.80;;;3.60;;
8913;SDS011;4492;48.736;9.092;2022-07-29T07:39:59;5.17;;;3.80;;
8913;SDS011;4492;48.736;9.092;2022-07-29T07:42:24;3.97;;;3.67;;
8913;SDS011;4492;48.736;9.092;2022-07-29T07:44:50;5.80;;;3.67;;
8913;SDS011;4492;48.736;9.092;2022-07-29T07:47:15;4.03;;;3.40;;
8913;SDS011;4492;48.736;9.092;2022-07-29T07:49:45;4.00;;;3.70;;
8913;SDS011;4492;48.736;9.092;2022-07-29T07:52:12;3.80;;;3.50;;
8913;SDS011;4492;48.736;9.092;2022-07-29T07:54:39;4.07;;;3.77;;
8913;SDS011;4492;48.736;9.092;2022-07-29T07:57:04;5.07;;;3.47;;
8913;SDS011;4492;48.736;9.092;2022-07-29T07:59:30;4.00;;;3.70;;
8913;SDS011;4492;48.736;9.092;2022-07-29T08:01:55;3.73;;;3.50;;
8913;SDS011;4492;48.736;9.092;2022-07-29T08:04:21;3.97;;;3.73;;
8913;SDS011;4492;48.736;9.092;2022-07-29T08:06:47;4.00;;;3.70;;
8913;SDS011;4492;48.736;9.092;2022-07-29T08:09:14;5.93;;;3.60;;
8913;SDS011;4492;48.736;9.092;2022-07-29T08:11:40;3.93;;;3.63;;
8913;SDS011;4492;48.736;9.092;2022-07-29T08:14:05;4.40;;;4.00;;
8913;SDS011;4492;48.736;9.092;2022-07-29T08:16:31;4.23;;;3.70;;
8913;SDS011;4492;48.736;9.092;2022-07-29T08:18:56;4.00;;;3.60;;
8913;SDS011;4492;48.736;9.092;2022-07-29T08:21:22;4.23;;;3.40;;
8913;SDS011;4492;48.736;9.092;2022-07-29T08:23:49;4.60;;;3.83;;
8913;SDS011;4492;48.736;9.092;2022-07-29T08:26:17;5.00;;;3.60;;
8913;SDS011;4492;48.736;9.092;2022-07-29T08:28:44;4.33;;;3.70;;
8913;SDS011;4492;48.736;9.092;2022-07-29T08:31:12;5.07;;;3.93;;
8913;SDS011;4492;48.736;9.092;2022-07-29T08:33:38;5.17;;;4.00;;
8913;SDS011;4492;48.736;9.092;2022-07-29T08:36:04;4.30;;;4.00;;
8913;SDS011;4492;48.736;9.092;2022-07-29T08:38:30;4.00;;;3.60;;
8913;SDS011;4492;48.736;9.092;2022-07-29T08:40:56;5.07;;;3.93;;
8913;SDS011;4492;48.736;9.092;2022-07-29T08:43:23;4.17;;;3.87;;
8913;SDS011;4492;48.736;9.092;2022-07-29T08:45:50;4.23;;;3.67;;
8913;SDS011;4492;48.736;9.092;2022-07-29T08:48:17;4.87;;;3.97;;
8913;SDS011;4492;48.736;9.092;2022-07-29T08:50:44;8.27;;;4.30;;
8913;SDS011;4492;48.736;9.092;2022-07-29T08:53:11;4.60;;;4.10;;
8913;SDS011;4492;48.736;9.092;2022-07-29T08:55:39;4.00;;;3.70;;
8913;SDS011;4492;48.736;9.092;2022-07-29T08:58:07;4.40;;;4.00;;
8913;SDS011;4492;48.736;9.092;2022-07-29T09:00:34;4.80;;;4.23;;
8913;SDS011;4492;48.736;9.092;2022-07-29T09:03:01;5.63;;;4.03;;
8913;SDS011;4492;48.736;9.092;2022-07-29T09:05:29;4.93;;;4.20;;
8913;SDS011;4492;48.736;9.092;2022-07-29T09:07:56;4.63;;;4.10;;
8913;SDS011;4492;48.736;9.092;2022-07-29T09:10:22;4.63;;;4.20;;
8913;SDS011;4492;48.736;9.092;2022-07-29T09:12:47;4.30;;;3.77;;
8913;SDS011;4492;48.736;9.092;2022-07-29T09:15:13;8.23;;;4.30;;
8913;SDS011;4492;48.736;9.092;2022-07-29T09:17:44;4.00;;;3.60;;
8913;SDS011;4492;48.736;9.092;2022-07-29T09:20:11;5.70;;;4.10;;
8913;SDS011;4492;48.736;9.092;2022-07-29T09:22:40;4.80;;;4.37;;
8913;SDS011;4492;48.736;9.092;2022-07-29T09:25:05;6.50;;;4.30;;
8913;SDS011;4492;48.736;9.092;2022-07-29T09:27:31;5.17;;;4.20;;
8913;SDS011;4492;48.736;9.092;2022-07-29T09:29:59;5.03;;;3.90;;
8913;SDS011;4492;48.736;9.092;2022-07-29T09:32:54;6.70;;;3.80;;
8913;SDS011;4492;48.736;9.092;2022-07-29T09:35:22;4.27;;;3.80;;
8913;SDS011;4492;48.736;9.092;2022-07-29T09:37:49;7.93;;;4.60;;
8913;SDS011;4492;48.736;9.092;2022-07-29T09:40:16;4.77;;;4.30;;
8913;SDS011;4492;48.736;9.092;2022-07-29T09:42:43;4.03;;;3.73;;
8913;SDS011;4492;48.736;9.092;2022-07-29T09:45:09;4.20;;;3.83;;
8913;SDS011;4492;48.736;9.092;2022-07-29T09:47:44;4.30;;;3.90;;
8913;SDS011;4492;48.736;9.092;2022-07-29T09:50:12;3.93;;;3.70;;
8913;SDS011;4492;48.736;9.092;2022-07-29T09:52:45;4.70;;;4.30;;
8913;SDS011;4492;48.736;9.092;2022-07-29T09:55:13;4.00;;;3.57;;
8913;SDS011;4492;48.736;9.092;2022-07-29T09:57:39;5.03;;;4.57;;
8913;SDS011;4492;48.736;9.092;2022-07-29T10:00:05;4.40;;;4.10;;
8913;SDS011;4492;48.736;9.092;2022-07-29T10:02:37;6.40;;;3.97;;
8913;SDS011;4492;48.736;9.092;2022-07-29T10:05:05;4.37;;;3.90;;
8913;SDS011;4492;48.736;9.092;2022-07-29T10:07:48;4.50;;;4.10;;
8913;SDS011;4492;48.736;9.092;2022-07-29T10:10:26;8.07;;;4.07;;
8913;SDS011;4492;48.736;9.092;2022-07-29T10:12:57;6.13;;;4.57;;
8913;SDS011;4492;48.736;9.092;2022-07-29T10:15:25;4.40;;;4.10;;
8913;SDS011;4492;48.736;9.092;2022-07-29T10:17:53;4.30;;;3.90;;
8913;SDS011;4492;48.736;9.092;2022-07-29T10:20:20;4.77;;;4.30;;
8913;SDS011;4492;48.736;9.092;2022-07-29T10:22:47;5.20;;;4.07;;
8913;SDS011;4492;48.736;9.092;2022-07-29T10:25:13;5.27;;;4.13;;
8913;SDS011;4492;48.736;9.092;2022-07-29T10:27:41;5.60;;;4.80;;
8913;SDS011;4492;48.736;9.092;2022-07-29T10:30:07;4.73;;;4.37;;
8913;SDS011;4492;48.736;9.092;2022-07-29T10:32:49;4.93;;;4.50;;
8913;SDS011;4492;48.736;9.092;2022-07-29T10:35:43;10.47;;;5.30;;
8913;SDS011;4492;48.736;9.092;2022-07-29T10:41:12;7.73;;;5.07;;
8913;SDS011;4492;48.736;9.092;2022-07-29T10:43:54;6.17;;;5.57;;
8913;SDS011;4492;48.736;9.092;2022-07-29T10:46:47;8.47;;;5.83;;
8913;SDS011;4492;48.736;9.092;2022-07-29T10:49:14;7.00;;;5.43;;
8913;SDS011;4492;48.736;9.092;2022-07-29T10:54:38;8.00;;;5.77;;
8913;SDS011;4492;48.736;9.092;2022-07-29T11:00:35;12.40;;;8.00;;
8913;SDS011;4492;48.736;9.092;2022-07-29T11:07:35;18.33;;;9.13;;
8913;SDS011;4492;48.736;9.092;2022-07-29T11:15:02;11.07;;;7.97;;
8913;SDS011;4492;48.736;9.092;2022-07-29T11:17:30;14.47;;;10.23;;
8913;SDS011;4492;48.736;9.092;2022-07-29T11:20:31;13.07;;;9.23;;
8913;SDS011;4492;48.736;9.092;2022-07-29T11:23:00;9.93;;;8.93;;
8913;SDS011;4492;48.736;9.092;2022-07-29T11:25:26;10.37;;;8.37;;
8913;SDS011;4492;48.736;9.092;2022-07-29T11:28:07;9.10;;;8.07;;
8913;SDS011;4492;48.736;9.092;2022-07-29T11:30:48;10.83;;;8.80;;
8913;SDS011;4492;48.736;9.092;2022-07-29T11:33:31;13.10;;;9.33;;
8913;SDS011;4492;48.736;9.092;2022-07-29T11:36:08;14.57;;;9.70;;
8913;SDS011;4492;48.736;9.092;2022-07-29T11:38:35;10.53;;;8.47;;
8913;SDS011;4492;48.736;9.092;2022-07-29T11:43:49;10.67;;;9.43;;
8913;SDS011;4492;48.736;9.092;2022-07-29T11:49:08;16.57;;;9.17;;
8913;SDS011;4492;48.736;9.092;2022-07-29T11:51:35;8.03;;;7.23;;
8913;SDS011;4492;48.736;9.092;2022-07-29T11:54:02;10.00;;;7.37;;
8913;SDS011;4492;48.736;9.092;2022-07-29T11:56:30;8.17;;;6.90;;
8913;SDS011;4492;48.736;9.092;2022-07-29T11:59:03;7.80;;;6.87;;
8913;SDS011;4492;48.736;9.092;2022-07-29T12:01:29;11.33;;;7.50;;
8913;SDS011;4492;48.736;9.092;2022-07-29T12:04:04;10.73;;;7.83;;
8913;SDS011;4492;48.736;9.092;2022-07-29T12:06:31;10.73;;;7.60;;
8913;SDS011;4492;48.736;9.092;2022-07-29T12:08:57;7.60;;;6.83;;
8913;SDS011;4492;48.736;9.092;2022-07-29T12:11:23;11.97;;;7.27;;
8913;SDS011;4492;48.736;9.092;2022-07-29T12:13:50;9.67;;;7.27;;
8913;SDS011;4492;48.736;9.092;2022-07-29T12:16:16;7.70;;;6.87;;
8913;SDS011;4492;48.736;9.092;2022-07-29T12:18:42;9.30;;;6.87;;
8913;SDS011;4492;48.736;9.092;2022-07-29T12:21:07;7.97;;;6.70;;
8913;SDS011;4492;48.736;9.092;2022-07-29T12:23:33;7.17;;;6.57;;
8913;SDS011;4492;48.736;9.092;2022-07-29T12:25:59;8.97;;;6.77;;
8913;SDS011;4492;48.736;9.092;2022-07-29T12:28:28;8.30;;;6.70;;
8913;SDS011;4492;48.736;9.092;2022-07-29T12:30:54;8.97;;;6.50;;
8913;SDS011;4492;48.736;9.092;2022-07-29T12:33:23;7.20;;;6.37;;
8913;SDS011;4492;48.736;9.092;2022-07-29T12:35:51;7.53;;;6.73;;
8913;SDS011;4492;48.736;9.092;2022-07-29T12:38:19;7.57;;;6.50;;
8913;SDS011;4492;48.736;9.092;2022-07-29T12:40:46;10.70;;;7.00;;
8913;SDS011;4492;48.736;9.092;2022-07-29T12:43:14;6.90;;;6.23;;
8913;SDS011;4492;48.736;9.092;2022-07-29T12:45:42;8.87;;;7.13;;
8913;SDS011;4492;48.736;9.092;2022-07-29T12:48:09;6.60;;;6.00;;
8913;SDS011;4492;48.736;9.092;2022-07-29T12:50:36;7.90;;;7.07;;
8913;SDS011;4492;48.736;9.092;2022-07-29T12:53:16;6.77;;;6.17;;
8913;SDS011;4492;48.736;9.092;2022-07-29T12:55:46;6.60;;;6.00;;
8913;SDS011;4492;48.736;9.092;2022-07-29T12:58:29;6.10;;;5.47;;
8913;SDS011;4492;48.736;9.092;2022-07-29T13:01:03;6.10;;;5.60;;
8913;SDS011;4492;48.736;9.092;2022-07-29T13:03:43;8.03;;;5.17;;
8913;SDS011;4492;48.736;9.092;2022-07-29T13:06:26;9.10;;;5.97;;
8913;SDS011;4492;48.736;9.092;2022-07-29T13:09:00;9.17;;;5.80;;
8913;SDS011;4492;48.736;9.092;2022-07-29T13:11:40;5.50;;;5.10;;
8913;SDS011;4492;48.736;9.092;2022-07-29T13:14:11;6.80;;;5.33;;
8913;SDS011;4492;48.736;9.092;2022-07-29T13:19:33;6.13;;;5.30;;
8913;SDS011;4492;48.736;9.092;2022-07-29T13:22:22;6.73;;;5.93;;
8913;SDS011;4492;48.736;9.092;2022-07-29T13:27:22;7.53;;;6.80;;
8913;SDS011;4492;48.736;9.092;2022-07-29T13:29:52;9.67;;;6.80;;
8913;SDS011;4492;48.736;9.092;2022-07-29T13:32:19;7.30;;;6.70;;
8913;SDS011;4492;48.736;9.092;2022-07-29T13:34:45;6.87;;;6.27;;
8913;SDS011;4492;48.736;9.092;2022-07-29T13:37:11;8.90;;;7.07;;
8913;SDS011;4492;48.736;9.092;2022-07-29T13:39:36;14.50;;;7.57;;
8913;SDS011;4492;48.736;9.092;2022-07-29T13:42:02;8.77;;;7.87;;
8913;SDS011;4492;48.736;9.092;2022-07-29T13:44:28;8.43;;;7.17;;
8913;SDS011;4492;48.736;9.092;2022-07-29T13:46:54;10.40;;;7.77;;
8913;SDS011;4492;48.736;9.092;2022-07-29T13:49:20;9.93;;;7.30;;
8913;SDS011;4492;48.736;9.092;2022-07-29T13:51:47;7.67;;;6.30;;
8913;SDS011;4492;48.736;9.092;2022-07-29T13:54:13;13.43;;;7.37;;
8913;SDS011;4492;48.736;9.092;2022-07-29T13:56:39;7.60;;;6.57;;
8913;SDS011;4492;48.736;9.092;2022-07-29T13:59:04;7.00;;;6.50;;
8913;SDS011;4492;48.736;9.092;2022-07-29T14:01:30;11.77;;;7.40;;
8913;SDS011;4492;48.736;9.092;2022-07-29T14:03:56;8.73;;;7.20;;
8913;SDS011;4492;48.736;9.092;2022-07-29T14:06:22;11.10;;;7.47;;
8913;SDS011;4492;48.736;9.092;2022-07-29T14:08:47;10.43;;;6.73;;
8913;SDS011;4492;48.736;9.092;2022-07-29T14:11:13;7.00;;;6.37;;
8913;SDS011;4492;48.736;9.092;2022-07-29T14:13:38;8.23;;;6.23;;
8913;SDS011;4492;48.736;9.092;2022-07-29T14:16:04;7.07;;;6.37;;
8913;SDS011;4492;48.736;9.092;2022-07-29T14:18:29;10.37;;;7.23;;
8913;SDS011;4492;48.736;9.092;2022-07-29T14:20:55;6.97;;;6.37;;
8913;SDS011;4492;48.736;9.092;2022-07-29T14:23:21;11.97;;;7.17;;
8913;SDS011;4492;48.736;9.092;2022-07-29T14:25:47;8.70;;;7.30;;
8913;SDS011;4492;48.736;9.092;2022-07-29T14:28:13;9.53;;;6.70;;
8913;SDS011;4492;48.736;9.092;2022-07-29T14:30:38;9.90;;;8.10;;
8913;SDS011;4492;48.736;9.092;2022-07-29T14:33:04;7.33;;;6.63;;
8913;SDS011;4492;48.736;9.092;2022-07-29T14:35:29;7.27;;;6.57;;
8913;SDS011;4492;48.736;9.092;2022-07-29T14:37:55;7.63;;;6.87;;
8913;SDS011;4492;48.736;9.092;2022-07-29T14:40:20;9.33;;;7.33;;
8913;SDS011;4492;48.736;9.092;2022-07-29T14:42:46;7.30;;;6.60;;
8913;SDS011;4492;48.736;9.092;2022-07-29T14:45:12;7.87;;;6.43;;
8913;SDS011;4492;48.736;9.092;2022-07-29T14:47:38;7.10;;;6.50;;
8913;SDS011;4492;48.736;9.092;2022-07-29T14:50:04;6.83;;;6.13;;
8913;SDS011;4492;48.736;9.092;2022-07-29T14:52:30;7.07;;;6.47;;
8913;SDS011;4492;48.736;9.092;2022-07-29T14:54:56;6.47;;;5.87;;
8913;SDS011;4492;48.736;9.092;2022-07-29T14:57:22;6.80;;;6.20;;
8913;SDS011;4492;48.736;9.092;2022-07-29T14:59:47;6.60;;;5.60;;
8913;SDS011;4492;48.736;9.092;2022-07-29T15:02:13;6.73;;;6.13;;
8913;SDS011;4492;48.736;9.092;2022-07-29T15:04:38;7.73;;;7.00;;
8913;SDS011;4492;48.736;9.092;2022-07-29T15:07:04;6.60;;;5.90;;
8913;SDS011;4492;48.736;9.092;2022-07-29T15:09:29;6.07;;;5.57;;
8913;SDS011;4492;48.736;9.092;2022-07-29T15:11:55;9.00;;;6.20;;
8913;SDS011;4492;48.736;9.092;2022-07-29T15:14:20;6.10;;;5.63;;
8913;SDS011;4492;48.736;9.092;2022-07-29T15:16:46;6.50;;;5.80;;
8913;SDS011;4492;48.736;9.092;2022-07-29T15:19:12;7.57;;;6.10;;
8913;SDS011;4492;48.736;9.092;2022-07-29T15:21:38;7.23;;;6.53;;
8913;SDS011;4492;48.736;9.092;2022-07-29T15:24:04;6.87;;;5.90;;
8913;SDS011;4492;48.736;9.092;2022-07-29T15:26:29;6.47;;;5.93;;
8913;SDS011;4492;48.736;9.092;2022-07-29T15:28:55;6.60;;;6.00;;
8913;SDS011;4492;48.736;9.092;2022-07-29T15:31:21;6.37;;;5.87;;
8913;SDS011;4492;48.736;9.092;2022-07-29T15:33:47;6.80;;;6.30;;
8913;SDS011;4492;48.736;9.092;2022-07-29T15:36:12;8.63;;;7.47;;
8913;SDS011;4492;48.736;9.092;2022-07-29T15:38:38;7.43;;;6.70;;
8913;SDS011;4492;48.736;9.092;2022-07-29T15:41:05;7.43;;;6.73;;
8913;SDS011;4492;48.736;9.092;2022-07-29T15:43:31;6.80;;;6.30;;
8913;SDS011;4492;48.736;9.092;2022-07-29T15:45:57;9.43;;;6.37;;
8913;SDS011;4492;48.736;9.092;2022-07-29T15:48:41;7.67;;;7.07;;
8913;SDS011;4492;48.736;9.092;2022-07-29T15:51:07;8.77;;;6.47;;
8913;SDS011;4492;48.736;9.092;2022-07-29T15:53:32;7.07;;;6.37;;
8913;SDS011;4492;48.736;9.092;2022-07-29T15:55:58;9.23;;;6.93;;
8913;SDS011;4492;48.736;9.092;2022-07-29T15:58:23;7.37;;;6.77;;